createdAt,value
2018-04-18T00:00:53.963Z,16.40
2018-04-18T00:03:21.563Z,18.37
2018-04-18T00:05:49.092Z,18.10
2018-04-18T00:08:16.616Z,18.37
2018-04-18T00:10:44.154Z,18.57
2018-04-18T00:13:11.691Z,17.87
2018-04-18T00:15:39.229Z,17.60
2018-04-18T00:18:06.749Z,18.73
2018-04-18T00:20:35.158Z,18.07
2018-04-18T00:23:02.684Z,18.63
2018-04-18T00:25:30.220Z,19.07
2018-04-18T00:27:57.753Z,17.90
2018-04-18T00:30:25.283Z,17.83
2018-04-18T00:32:53.577Z,18.43
2018-04-18T00:35:21.105Z,17.27
2018-04-18T00:37:49.421Z,17.97
2018-04-18T00:40:17.091Z,19.73
2018-04-18T00:42:44.604Z,17.60
2018-04-18T00:45:12.131Z,18.17
2018-04-18T00:47:39.673Z,17.53
2018-04-18T00:50:07.205Z,16.83
2018-04-18T00:52:34.730Z,17.00
2018-04-18T00:55:02.241Z,17.73
2018-04-18T00:57:29.752Z,18.03
2018-04-18T00:59:57.273Z,18.13
2018-04-18T01:02:24.800Z,18.00
2018-04-18T01:04:52.346Z,18.17
2018-04-18T01:07:19.882Z,16.97
2018-04-18T01:09:48.179Z,17.73
2018-04-18T01:12:16.469Z,18.57
2018-04-18T01:14:43.989Z,17.47
2018-04-18T01:17:11.521Z,17.83
2018-04-18T01:19:39.052Z,18.10
2018-04-18T01:22:06.585Z,17.90
2018-04-18T01:24:34.153Z,16.97
2018-04-18T01:27:01.665Z,17.43
2018-04-18T01:29:29.201Z,17.53
2018-04-18T01:31:56.728Z,17.33
2018-04-18T01:34:24.241Z,18.07
2018-04-18T01:36:51.769Z,16.83
2018-04-18T01:39:19.289Z,17.17
2018-04-18T01:41:47.575Z,17.33
2018-04-18T01:44:15.097Z,17.37
2018-04-18T01:46:42.615Z,17.27
2018-04-18T01:49:22.869Z,18.17
2018-04-18T01:51:50.401Z,16.57
2018-04-18T01:54:17.947Z,17.70
2018-04-18T01:56:46.245Z,18.80
2018-04-18T01:59:13.774Z,18.07
2018-04-18T02:01:41.296Z,19.03
2018-04-18T02:04:08.835Z,19.40
2018-04-18T02:06:36.352Z,18.03
2018-04-18T02:09:03.855Z,19.50
2018-04-18T02:11:31.368Z,19.60
2018-04-18T02:13:59.681Z,19.93
2018-04-18T02:16:27.247Z,19.57
2018-04-18T02:18:54.744Z,17.67
2018-04-18T02:21:22.266Z,19.47
2018-04-18T02:23:49.789Z,19.17
2018-04-18T02:26:17.309Z,19.37
2018-04-18T02:28:44.847Z,20.80
2018-04-18T02:31:12.395Z,19.67
2018-04-18T02:33:39.922Z,19.50
2018-04-18T02:36:08.215Z,18.30
2018-04-18T02:38:35.738Z,19.07
2018-04-18T02:41:04.002Z,18.90
2018-04-18T02:43:31.532Z,19.50
2018-04-18T02:45:59.097Z,18.03
2018-04-18T02:48:26.637Z,17.97
2018-04-18T02:50:54.166Z,19.00
2018-04-18T02:53:22.482Z,18.70
2018-04-18T02:55:50.017Z,17.87
2018-04-18T02:58:17.537Z,18.77
2018-04-18T03:00:45.064Z,18.83
2018-04-18T03:03:12.631Z,18.20
2018-04-18T03:05:40.145Z,18.30
2018-04-18T03:08:07.697Z,17.77
2018-04-18T03:10:35.239Z,17.13
2018-04-18T03:13:03.550Z,18.57
2018-04-18T03:15:31.107Z,18.60
2018-04-18T03:17:58.663Z,19.03
2018-04-18T03:20:26.179Z,19.17
2018-04-18T03:22:53.703Z,19.57
2018-04-18T03:25:21.223Z,18.50
2018-04-18T03:27:49.501Z,18.90
2018-04-18T03:30:17.789Z,19.00
2018-04-18T03:32:45.334Z,18.97
2018-04-18T03:35:12.868Z,19.03
2018-04-18T03:37:40.415Z,18.67
2018-04-18T03:40:07.958Z,17.93
2018-04-18T03:42:35.550Z,19.87
2018-04-18T03:45:03.076Z,20.27
2018-04-18T03:47:30.643Z,19.10
2018-04-18T03:49:58.664Z,19.37
2018-04-18T03:52:26.200Z,19.10
2018-04-18T03:54:53.776Z,20.93
2018-04-18T03:57:22.067Z,19.67
2018-04-18T03:59:49.604Z,19.80
2018-04-18T04:02:17.112Z,18.77
2018-04-18T04:04:44.659Z,19.10
2018-04-18T04:07:12.165Z,18.10
2018-04-18T04:09:39.687Z,19.70
2018-04-18T04:12:07.211Z,19.03
2018-04-18T04:14:34.757Z,19.30
2018-04-18T04:17:14.021Z,18.27
2018-04-18T04:19:53.303Z,18.13
2018-04-18T04:22:33.704Z,18.77
2018-04-18T04:25:01.253Z,19.03
2018-04-18T04:27:28.775Z,18.80
2018-04-18T04:29:56.301Z,19.10
2018-04-18T04:32:23.838Z,19.50
2018-04-18T04:34:52.079Z,21.23
2018-04-18T04:37:20.396Z,20.00
2018-04-18T04:39:47.936Z,19.37
2018-04-18T04:42:16.212Z,19.87
2018-04-18T04:44:44.547Z,20.30
2018-04-18T04:47:12.307Z,19.37
2018-04-18T04:49:39.877Z,20.13
2018-04-18T04:52:07.398Z,20.23
2018-04-18T04:54:34.912Z,21.33
2018-04-18T04:57:03.198Z,21.57
2018-04-18T04:59:31.498Z,21.27
2018-04-18T05:01:59.018Z,22.63
2018-04-18T05:04:26.612Z,22.27
2018-04-18T05:06:54.128Z,22.63
2018-04-18T05:09:22.280Z,24.00
2018-04-18T05:11:49.794Z,23.97
2018-04-18T05:14:17.310Z,24.97
2018-04-18T05:16:44.835Z,24.53
2018-04-18T05:19:12.712Z,23.83
2018-04-18T05:21:40.248Z,26.47
2018-04-18T05:24:07.758Z,25.13
2018-04-18T05:26:35.276Z,24.90
2018-04-18T05:29:02.819Z,25.03
2018-04-18T05:31:30.372Z,25.37
2018-04-18T05:33:57.916Z,24.73
2018-04-18T05:36:26.242Z,25.67
2018-04-18T05:38:53.780Z,26.90
2018-04-18T05:41:21.304Z,27.80
2018-04-18T05:43:49.628Z,28.70
2018-04-18T05:46:17.147Z,29.23
2018-04-18T05:48:44.685Z,28.97
2018-04-18T05:51:12.271Z,29.27
2018-04-18T05:53:40.773Z,28.57
2018-04-18T05:56:08.344Z,29.23
2018-04-18T05:58:35.886Z,28.97
2018-04-18T06:01:03.424Z,30.03
2018-04-18T06:03:31.720Z,30.07
2018-04-18T06:05:59.252Z,29.20
2018-04-18T06:08:26.803Z,28.23
2018-04-18T06:10:55.089Z,28.63
2018-04-18T06:13:23.383Z,28.80
2018-04-18T06:15:51.034Z,28.83
2018-04-18T06:18:19.359Z,34.30
2018-04-18T06:20:46.917Z,33.17
2018-04-18T06:23:14.426Z,29.57
2018-04-18T06:25:42.793Z,29.30
2018-04-18T06:28:11.069Z,28.07
2018-04-18T06:30:38.595Z,28.33
2018-04-18T06:33:06.115Z,28.60
2018-04-18T06:35:33.664Z,27.90
2018-04-18T06:38:01.184Z,27.17
2018-04-18T06:40:28.716Z,26.60
2018-04-18T06:42:56.236Z,27.83
2018-04-18T06:45:23.745Z,27.37
2018-04-18T06:47:51.283Z,26.47
2018-04-18T06:50:19.251Z,26.70
2018-04-18T06:52:46.801Z,24.83
2018-04-18T06:55:14.429Z,25.33
2018-04-18T06:57:42.768Z,25.23
2018-04-18T07:00:10.250Z,24.73
2018-04-18T07:02:37.767Z,23.80
2018-04-18T07:05:05.278Z,22.87
2018-04-18T07:07:33.565Z,24.33
2018-04-18T07:10:01.888Z,24.20
2018-04-18T07:12:29.422Z,21.43
2018-04-18T07:14:56.959Z,22.27
2018-04-18T07:17:24.478Z,23.47
2018-04-18T07:19:51.997Z,23.40
2018-04-18T07:22:19.538Z,22.03
2018-04-18T07:24:47.066Z,22.50
2018-04-18T07:27:14.582Z,21.17
2018-04-18T07:29:42.345Z,20.27
2018-04-18T07:32:09.882Z,21.93
2018-04-18T07:34:37.890Z,22.07
2018-04-18T07:37:05.407Z,19.30
2018-04-18T07:39:32.978Z,17.73
2018-04-18T07:42:00.542Z,18.80
2018-04-18T07:44:28.082Z,18.53
2018-04-18T07:46:56.370Z,16.67
2018-04-18T07:49:23.896Z,16.67
2018-04-18T07:51:51.422Z,16.60
2018-04-18T07:54:18.966Z,14.23
2018-04-18T07:56:46.482Z,12.40
2018-04-18T07:59:14.777Z,12.93
2018-04-18T08:01:42.318Z,12.90
2018-04-18T08:04:10.620Z,13.50
2018-04-18T08:06:38.141Z,10.77
2018-04-18T08:09:06.421Z,11.20
2018-04-18T08:11:33.954Z,10.20
2018-04-18T08:14:01.485Z,10.73
2018-04-18T08:16:29.092Z,12.20
2018-04-18T08:18:57.377Z,9.43
2018-04-18T08:21:25.681Z,7.40
2018-04-18T08:23:53.202Z,6.47
2018-04-18T08:26:20.732Z,6.07
2018-04-18T08:28:48.258Z,7.70
2018-04-18T08:31:15.772Z,5.03
2018-04-18T08:33:44.066Z,7.30
2018-04-18T08:36:11.600Z,8.37
2018-04-18T08:38:39.119Z,8.97
2018-04-18T08:41:06.676Z,8.53
2018-04-18T08:43:34.201Z,8.13
2018-04-18T08:46:01.733Z,7.47
2018-04-18T08:48:29.250Z,6.80
2018-04-18T08:50:56.775Z,5.57
2018-04-18T08:53:25.090Z,6.50
2018-04-18T08:55:52.597Z,5.87
2018-04-18T08:58:20.109Z,5.50
2018-04-18T09:00:47.643Z,5.90
2018-04-18T09:03:15.200Z,7.00
2018-04-18T09:05:42.728Z,6.90
2018-04-18T09:08:11.038Z,7.27
2018-04-18T09:10:38.572Z,9.20
2018-04-18T09:13:06.097Z,7.83
2018-04-18T09:15:33.618Z,8.10
2018-04-18T09:18:01.132Z,8.27
2018-04-18T09:20:28.653Z,8.30
2018-04-18T09:22:56.166Z,8.00
2018-04-18T09:25:24.466Z,8.50
2018-04-18T09:27:51.990Z,8.80
2018-04-18T09:30:19.510Z,7.80
2018-04-18T09:32:47.043Z,7.93
2018-04-18T09:35:14.565Z,7.60
2018-04-18T09:37:42.110Z,6.97
2018-04-18T09:40:09.660Z,5.40
2018-04-18T09:42:37.182Z,5.83
2018-04-18T09:45:04.750Z,6.40
2018-04-18T09:47:32.294Z,4.80
2018-04-18T09:49:59.821Z,5.60
2018-04-18T09:52:28.118Z,6.10
2018-04-18T09:54:55.641Z,5.80
2018-04-18T09:57:23.177Z,5.43
2018-04-18T09:59:52.285Z,5.23
2018-04-18T10:05:24.465Z,4.97
2018-04-18T10:07:51.980Z,3.47
2018-04-18T10:10:19.523Z,3.97
2018-04-18T10:12:47.037Z,5.80
2018-04-18T10:15:14.548Z,5.93
2018-04-18T10:17:42.098Z,5.30
2018-04-18T10:20:10.355Z,4.80
2018-04-18T10:22:38.772Z,4.83
2018-04-18T10:25:06.300Z,6.23
2018-04-18T10:27:34.583Z,5.30
2018-04-18T10:30:02.126Z,5.73
2018-04-18T10:32:30.428Z,6.17
2018-04-18T10:34:58.003Z,6.30
2018-04-18T10:37:25.530Z,6.13
2018-04-18T10:39:53.817Z,5.90
2018-04-18T10:42:21.336Z,6.93
2018-04-18T10:44:48.864Z,5.77
2018-04-18T10:47:16.384Z,6.90
2018-04-18T10:49:44.696Z,6.87
2018-04-18T10:52:12.264Z,6.47
2018-04-18T10:54:39.774Z,6.67
2018-04-18T10:57:08.061Z,6.93
2018-04-18T10:59:36.367Z,6.87
2018-04-18T11:02:03.890Z,6.03
2018-04-18T11:04:31.417Z,6.80
2018-04-18T11:06:59.329Z,5.77
2018-04-18T11:09:26.847Z,5.83
2018-04-18T11:11:54.396Z,4.60
2018-04-18T11:14:21.919Z,5.97
2018-04-18T11:16:49.427Z,5.50
2018-04-18T11:19:16.979Z,4.87
2018-04-18T11:21:44.531Z,5.20
2018-04-18T11:24:12.042Z,4.70
2018-04-18T11:26:39.679Z,5.67
2018-04-18T11:29:07.198Z,5.37
2018-04-18T11:31:34.748Z,4.50
2018-04-18T11:34:02.293Z,4.80
2018-04-18T11:36:29.821Z,5.20
2018-04-18T11:38:58.104Z,4.97
2018-04-18T11:41:25.657Z,5.97
2018-04-18T11:43:53.182Z,5.70
2018-04-18T11:46:21.505Z,5.47
2018-04-18T11:48:49.064Z,5.63
2018-04-18T11:51:16.596Z,5.57
2018-04-18T11:53:44.984Z,5.10
2018-04-18T11:56:12.503Z,6.07
2018-04-18T11:58:40.021Z,6.07
2018-04-18T12:01:07.596Z,5.10
2018-04-18T12:03:35.149Z,6.33
2018-04-18T12:06:02.686Z,4.93
2018-04-18T12:08:30.211Z,6.47
2018-04-18T12:10:58.540Z,7.40
2018-04-18T12:13:26.071Z,7.03
2018-04-18T12:15:53.595Z,6.60
2018-04-18T12:18:21.114Z,6.87
2018-04-18T12:20:48.633Z,6.20
2018-04-18T12:23:16.148Z,6.70
2018-04-18T12:25:43.686Z,6.60
2018-04-18T12:28:11.221Z,7.00
2018-04-18T12:30:38.767Z,6.87
2018-04-18T12:33:06.295Z,6.37
2018-04-18T12:35:34.232Z,6.27
2018-04-18T12:38:01.769Z,6.37
2018-04-18T12:40:29.326Z,5.90
2018-04-18T12:42:56.859Z,6.27
2018-04-18T12:45:25.145Z,5.57
2018-04-18T12:47:53.431Z,6.47
2018-04-18T12:50:21.712Z,6.83
2018-04-18T12:52:49.988Z,6.40
2018-04-18T12:55:18.296Z,7.20
2018-04-18T12:57:45.817Z,6.80
2018-04-18T13:00:14.123Z,7.33
2018-04-18T13:02:41.653Z,7.23
2018-04-18T13:05:09.943Z,7.50
2018-04-18T13:07:37.502Z,7.73
2018-04-18T13:10:05.039Z,7.07
2018-04-18T13:12:33.349Z,8.53
2018-04-18T13:15:00.868Z,8.30
2018-04-18T13:17:28.408Z,8.53
2018-04-18T13:19:55.927Z,9.10
2018-04-18T13:22:23.483Z,9.67
2018-04-18T13:24:50.998Z,9.33
2018-04-18T13:27:18.551Z,9.27
2018-04-18T13:29:46.089Z,9.50
2018-04-18T13:32:13.613Z,9.60
2018-04-18T13:34:41.129Z,9.40
2018-04-18T13:37:09.474Z,8.63
2018-04-18T13:39:36.984Z,9.20
2018-04-18T13:42:05.265Z,9.37
2018-04-18T13:44:33.597Z,8.77
2018-04-18T13:47:01.180Z,9.73
2018-04-18T13:49:29.466Z,9.87
2018-04-18T13:51:57.760Z,9.83
2018-04-18T13:54:25.325Z,10.37
2018-04-18T13:56:52.870Z,9.93
2018-04-18T13:59:20.411Z,10.50
2018-04-18T14:01:47.964Z,10.30
2018-04-18T14:04:15.501Z,10.00
2018-04-18T14:06:43.039Z,10.70
2018-04-18T14:09:10.553Z,10.63
2018-04-18T14:11:38.864Z,10.27
2018-04-18T14:14:06.376Z,10.43
2018-04-18T14:16:33.907Z,10.33
2018-04-18T14:19:01.439Z,10.60
2018-04-18T14:21:28.966Z,9.60
2018-04-18T14:23:56.496Z,10.37
2018-04-18T14:26:24.054Z,10.30
2018-04-18T14:28:51.588Z,10.90
2018-04-18T14:31:19.120Z,10.00
2018-04-18T14:33:46.680Z,10.03
2018-04-18T14:36:14.191Z,10.67
2018-04-18T14:38:41.754Z,10.03
2018-04-18T14:41:09.358Z,9.70
2018-04-18T14:43:36.898Z,9.43
2018-04-18T14:46:04.430Z,10.83
2018-04-18T14:48:31.956Z,10.23
2018-04-18T14:50:59.558Z,10.10
2018-04-18T14:53:27.105Z,10.70
2018-04-18T14:55:54.638Z,8.93
2018-04-18T14:58:23.026Z,10.10
2018-04-18T15:00:50.548Z,10.80
2018-04-18T15:03:18.080Z,9.67
2018-04-18T15:05:46.375Z,9.83
2018-04-18T15:08:13.932Z,9.83
2018-04-18T15:10:41.472Z,8.90
2018-04-18T15:13:09.777Z,8.73
2018-04-18T15:15:37.308Z,9.73
2018-04-18T15:18:05.618Z,8.87
2018-04-18T15:20:33.170Z,11.30
2018-04-18T15:23:00.759Z,12.77
2018-04-18T15:25:28.295Z,13.67
2018-04-18T15:27:55.853Z,10.97
2018-04-18T15:30:23.356Z,13.13
2018-04-18T15:32:50.904Z,11.90
2018-04-18T15:35:18.450Z,11.50
2018-04-18T15:37:46.009Z,12.23
2018-04-18T15:40:13.567Z,12.33
2018-04-18T15:42:41.675Z,12.13
2018-04-18T15:45:09.218Z,13.10
2018-04-18T15:47:36.745Z,12.37
2018-04-18T15:50:04.266Z,12.13
2018-04-18T15:52:32.539Z,12.13
2018-04-18T15:55:01.752Z,13.07
2018-04-18T15:57:29.299Z,11.10
2018-04-18T15:59:57.605Z,11.33
2018-04-18T16:02:25.145Z,12.83
2018-04-18T16:04:52.698Z,12.40
2018-04-18T16:07:20.230Z,11.40
2018-04-18T16:09:47.773Z,10.73
2018-04-18T16:12:15.314Z,11.53
2018-04-18T16:14:42.865Z,11.23
2018-04-18T16:17:10.413Z,11.50
2018-04-18T16:19:37.979Z,11.60
2018-04-18T16:22:05.533Z,12.47
2018-04-18T16:24:33.055Z,10.87
2018-04-18T16:27:01.399Z,11.30
2018-04-18T16:29:40.724Z,10.53
2018-04-18T16:32:08.342Z,10.40
2018-04-18T16:34:35.894Z,11.33
2018-04-18T16:37:04.214Z,9.93
2018-04-18T16:39:31.782Z,9.60
2018-04-18T16:41:59.336Z,9.77
2018-04-18T16:44:26.840Z,9.50
2018-04-18T16:46:54.351Z,9.40
2018-04-18T16:49:21.885Z,9.30
2018-04-18T16:51:49.425Z,9.53
2018-04-18T16:54:16.958Z,9.90
2018-04-18T16:56:44.483Z,12.07
2018-04-18T16:59:12.029Z,10.63
2018-04-18T17:01:39.579Z,296.87
2018-04-18T17:04:07.129Z,387.17
2018-04-18T17:06:34.669Z,102.23
2018-04-18T17:09:02.991Z,65.43
2018-04-18T17:11:30.517Z,12.90
2018-04-18T17:13:58.077Z,104.53
2018-04-18T17:16:26.407Z,64.00
2018-04-18T17:18:53.935Z,16.70
2018-04-18T17:21:21.458Z,18.60
2018-04-18T17:23:49.738Z,28.13
2018-04-18T17:26:18.082Z,25.37
2018-04-18T17:28:46.065Z,14.07
2018-04-18T17:31:14.490Z,10.03
2018-04-18T17:33:42.026Z,9.67
2018-04-18T17:36:10.333Z,10.87
2018-04-18T17:38:37.878Z,10.00
2018-04-18T17:41:06.218Z,11.37
2018-04-18T17:43:34.517Z,10.53
2018-04-18T17:46:02.847Z,10.47
2018-04-18T17:48:30.408Z,9.80
2018-04-18T17:50:57.923Z,11.13
2018-04-18T17:53:25.464Z,9.53
2018-04-18T17:55:53.026Z,9.80
2018-04-18T17:58:21.341Z,10.10
2018-04-18T18:00:48.910Z,9.40
2018-04-18T18:03:16.462Z,10.07
2018-04-18T18:05:44.274Z,10.40
2018-04-18T18:08:12.684Z,11.43
2018-04-18T18:10:40.320Z,12.40
2018-04-18T18:13:08.644Z,12.37
2018-04-18T18:15:36.215Z,10.67
2018-04-18T18:18:03.826Z,11.90
2018-04-18T18:20:32.194Z,11.20
2018-04-18T18:22:59.829Z,11.30
2018-04-18T18:25:27.433Z,10.20
2018-04-18T18:27:56.038Z,10.40
2018-04-18T18:30:23.638Z,9.70
2018-04-18T18:32:51.262Z,10.47
2018-04-18T18:35:19.519Z,9.60
2018-04-18T18:37:47.275Z,10.27
2018-04-18T18:40:15.126Z,10.20
2018-04-18T18:42:42.752Z,9.27
2018-04-18T18:45:10.371Z,10.13
2018-04-18T18:47:37.983Z,11.50
2018-04-18T18:50:05.603Z,19.07
2018-04-18T18:52:33.217Z,13.33
2018-04-18T18:55:00.884Z,10.33
2018-04-18T18:57:28.587Z,10.30
2018-04-18T18:59:56.322Z,10.40
2018-04-18T19:02:23.946Z,10.63
2018-04-18T19:04:51.751Z,9.93
2018-04-18T19:07:19.523Z,9.80
2018-04-18T19:09:47.289Z,9.80
2018-04-18T19:12:14.940Z,9.33
2018-04-18T19:14:42.689Z,9.60
2018-04-18T19:17:11.156Z,10.00
2018-04-18T19:19:39.638Z,9.77
2018-04-18T19:22:07.460Z,9.70
2018-04-18T19:24:35.031Z,10.10
2018-04-18T19:27:02.709Z,9.87
2018-04-18T19:29:31.248Z,10.43
2018-04-18T19:31:58.899Z,10.50
2018-04-18T19:34:26.468Z,10.00
2018-04-18T19:36:54.013Z,10.20
2018-04-18T19:39:21.640Z,10.27
2018-04-18T19:41:49.282Z,10.57
2018-04-18T19:44:16.879Z,10.30
2018-04-18T19:46:45.223Z,11.67
2018-04-18T19:49:13.717Z,12.03
2018-04-18T19:51:41.302Z,12.60
2018-04-18T19:54:08.877Z,11.20
2018-04-18T19:56:36.433Z,12.47
2018-04-18T19:59:04.037Z,26.40
2018-04-18T20:01:32.463Z,21.60
2018-04-18T20:04:00.318Z,12.23
2018-04-18T20:06:27.965Z,12.67
2018-04-18T20:08:55.599Z,11.40
2018-04-18T20:11:23.293Z,12.60
2018-04-18T20:13:51.639Z,11.60
2018-04-18T20:16:19.229Z,11.33
2018-04-18T20:18:46.845Z,12.10
2018-04-18T20:21:15.132Z,12.17
2018-04-18T20:23:42.692Z,11.93
2018-04-18T20:26:10.293Z,12.57
2018-04-18T20:28:38.606Z,12.07
2018-04-18T20:31:06.204Z,11.70
2018-04-18T20:33:33.907Z,12.30
2018-04-18T20:36:01.472Z,12.00
2018-04-18T20:38:29.023Z,13.93
2018-04-18T20:40:56.588Z,20.93
2018-04-18T20:43:24.135Z,16.53
2018-04-18T20:45:51.714Z,12.90
2018-04-18T20:48:19.301Z,11.87
2018-04-18T20:50:47.645Z,13.40
2018-04-18T20:53:15.215Z,13.67
2018-04-18T20:55:42.788Z,14.57
2018-04-18T20:58:10.344Z,14.00
2018-04-18T21:00:37.987Z,13.20
2018-04-18T21:03:05.563Z,12.60
2018-04-18T21:05:33.134Z,13.40
2018-04-18T21:08:00.664Z,12.20
2018-04-18T21:10:28.237Z,12.20
2018-04-18T21:12:55.772Z,12.53
2018-04-18T21:15:24.090Z,12.30
2018-04-18T21:17:51.620Z,11.93
2018-04-18T21:20:19.173Z,11.57
2018-04-18T21:22:46.709Z,12.70
2018-04-18T21:25:14.271Z,11.97
2018-04-18T21:27:42.574Z,11.90
2018-04-18T21:30:10.125Z,11.20
2018-04-18T21:32:37.707Z,11.77
2018-04-18T21:35:05.259Z,11.50
2018-04-18T21:37:33.029Z,11.53
2018-04-18T21:40:00.577Z,11.57
2018-04-18T21:42:28.139Z,11.77
2018-04-18T21:44:55.671Z,11.50
2018-04-18T21:47:23.227Z,12.00
2018-04-18T21:49:51.528Z,11.70
2018-04-18T21:52:19.132Z,12.07
2018-04-18T21:54:46.681Z,12.07
2018-04-18T21:57:14.215Z,11.40
2018-04-18T21:59:41.750Z,12.23
2018-04-18T22:02:09.289Z,11.73
2018-04-18T22:04:37.626Z,12.50
2018-04-18T22:07:05.168Z,10.83
2018-04-18T22:09:33.531Z,12.50
2018-04-18T22:12:01.104Z,11.83
2018-04-18T22:14:28.642Z,11.63
2018-04-18T22:16:56.231Z,11.40
2018-04-18T22:19:24.566Z,11.63
2018-04-18T22:21:53.279Z,11.73
2018-04-18T22:24:20.820Z,11.03
2018-04-18T22:26:49.155Z,11.67
2018-04-18T22:29:16.683Z,11.77
2018-04-18T22:31:44.957Z,10.70
2018-04-18T22:34:12.487Z,11.30
2018-04-18T22:36:40.048Z,10.63
2018-04-18T22:39:07.611Z,10.20
2018-04-18T22:41:35.251Z,10.77
2018-04-18T22:44:03.581Z,10.10
2018-04-18T22:46:31.133Z,9.87
2018-04-18T22:48:58.714Z,10.30
2018-04-18T22:51:26.265Z,10.10
2018-04-18T22:53:53.824Z,9.87
2018-04-18T22:56:21.346Z,9.57
2018-04-18T22:58:48.963Z,9.70
2018-04-18T23:01:16.873Z,9.53
2018-04-18T23:03:44.431Z,9.20
2018-04-18T23:06:11.976Z,9.37
2018-04-18T23:08:39.555Z,8.87
2018-04-18T23:11:07.540Z,8.90
2018-04-18T23:13:35.558Z,8.97
2018-04-18T23:16:03.118Z,8.77
2018-04-18T23:18:30.698Z,8.83
2018-04-18T23:20:58.238Z,7.97
2018-04-18T23:23:25.792Z,8.63
2018-04-18T23:25:53.370Z,8.63
2018-04-18T23:28:21.677Z,8.57
2018-04-18T23:30:49.214Z,8.43
2018-04-18T23:33:17.520Z,8.33
2018-04-18T23:35:45.069Z,8.70
2018-04-18T23:38:12.600Z,8.00
2018-04-18T23:40:40.933Z,8.83
2018-04-18T23:43:08.466Z,7.93
2018-04-18T23:45:36.001Z,8.67
2018-04-18T23:48:03.530Z,8.93
2018-04-18T23:50:31.065Z,8.73
2018-04-18T23:52:59.058Z,8.93
2018-04-18T23:55:26.652Z,8.57
2018-04-18T23:57:54.176Z,8.93
